sensor_id;sensor_type;location;lat;lon;timestamp;pressure;altitude;pressure_sealevel;temperature;humidity
42105;BME280;70664;51.472;5.712;2024-03-02T00:00:54;99661.09;;;18.14;62.99
42105;BME280;70664;51.472;5.712;2024-03-02T00:03:20;99662.84;;;18.13;62.85
42105;BME280;70664;51.472;5.712;2024-03-02T00:05:50;99673.41;;;18.10;62.80
42105;BME280;70664;51.472;5.712;2024-03-02T00:08:25;99670.03;;;18.08;62.72
42105;BME280;70664;51.472;5.712;2024-03-02T00:10:52;99671.81;;;18.07;62.66
42105;BME280;70664;51.472;5.712;2024-03-02T00:13:22;99673.63;;;18.05;62.86
42105;BME280;70664;51.472;5.712;2024-03-02T00:15:54;99684.09;;;18.04;62.74
42105;BME280;70664;51.472;5.712;2024-03-02T00:18:41;99686.78;;;18.02;62.68
42105;BME280;70664;51.472;5.712;2024-03-02T00:21:09;99677.38;;;17.98;62.77
42105;BME280;70664;51.472;5.712;2024-03-02T00:23:35;99698.28;;;17.96;63.28
42105;BME280;70664;51.472;5.712;2024-03-02T00:26:02;99699.19;;;17.95;63.02
42105;BME280;70664;51.472;5.712;2024-03-02T00:28:34;99700.16;;;17.93;62.89
42105;BME280;70664;51.472;5.712;2024-03-02T00:31:11;99699.47;;;17.89;62.87
42105;BME280;70664;51.472;5.712;2024-03-02T00:33:42;99704.66;;;17.89;63.28
42105;BME280;70664;51.472;5.712;2024-03-02T00:36:10;99711.81;;;17.84;62.99
42105;BME280;70664;51.472;5.712;2024-03-02T00:38:47;99740.50;;;17.82;63.20
42105;BME280;70664;51.472;5.712;2024-03-02T00:41:21;99776.03;;;17.82;63.22
42105;BME280;70664;51.472;5.712;2024-03-02T00:44:01;99768.34;;;17.80;63.12
42105;BME280;70664;51.472;5.712;2024-03-02T00:46:37;99782.28;;;17.78;62.76
42105;BME280;70664;51.472;5.712;2024-03-02T00:51:37;99791.00;;;17.77;63.02
42105;BME280;70664;51.472;5.712;2024-03-02T00:54:09;99792.03;;;17.73;63.05
42105;BME280;70664;51.472;5.712;2024-03-02T00:56:36;99786.91;;;17.71;63.01
42105;BME280;70664;51.472;5.712;2024-03-02T00:59:02;99791.25;;;17.71;63.09
42105;BME280;70664;51.472;5.712;2024-03-02T01:01:28;99802.59;;;17.70;63.03
42105;BME280;70664;51.472;5.712;2024-03-02T01:03:53;99803.50;;;17.69;62.99
42105;BME280;70664;51.472;5.712;2024-03-02T01:06:19;99808.69;;;17.69;62.82
42105;BME280;70664;51.472;5.712;2024-03-02T01:08:45;99817.47;;;17.66;62.92
42105;BME280;70664;51.472;5.712;2024-03-02T01:11:12;99809.75;;;17.64;63.10
42105;BME280;70664;51.472;5.712;2024-03-02T01:13:38;99820.25;;;17.61;62.81
42105;BME280;70664;51.472;5.712;2024-03-02T01:16:04;99807.31;;;17.60;62.76
42105;BME280;70664;51.472;5.712;2024-03-02T01:18:30;99814.28;;;17.59;62.95
42105;BME280;70664;51.472;5.712;2024-03-02T01:20:56;99807.41;;;17.58;63.03
42105;BME280;70664;51.472;5.712;2024-03-02T01:23:23;99803.09;;;17.57;63.02
42105;BME280;70664;51.472;5.712;2024-03-02T01:25:50;99798.00;;;17.56;63.02
42105;BME280;70664;51.472;5.712;2024-03-02T01:28:16;99809.34;;;17.53;63.11
42105;BME280;70664;51.472;5.712;2024-03-02T01:30:42;99809.34;;;17.53;63.21
42105;BME280;70664;51.472;5.712;2024-03-02T01:33:08;99812.00;;;17.51;63.02
42105;BME280;70664;51.472;5.712;2024-03-02T01:35:34;99813.84;;;17.49;63.20
42105;BME280;70664;51.472;5.712;2024-03-02T01:38:04;99812.13;;;17.48;62.92
42105;BME280;70664;51.472;5.712;2024-03-02T01:40:35;99808.69;;;17.48;63.01
42105;BME280;70664;51.472;5.712;2024-03-02T01:43:01;99801.78;;;17.47;62.99
42105;BME280;70664;51.472;5.712;2024-03-02T01:45:28;99795.00;;;17.44;63.35
42105;BME280;70664;51.472;5.712;2024-03-02T01:47:54;99798.50;;;17.43;63.25
42105;BME280;70664;51.472;5.712;2024-03-02T01:50:28;99800.31;;;17.41;63.03
42105;BME280;70664;51.472;5.712;2024-03-02T01:52:58;99795.13;;;17.41;63.20
42105;BME280;70664;51.472;5.712;2024-03-02T01:55:24;99791.69;;;17.41;63.05
42105;BME280;70664;51.472;5.712;2024-03-02T01:57:51;99803.88;;;17.39;62.91
42105;BME280;70664;51.472;5.712;2024-03-02T02:00:19;99795.25;;;17.38;63.21
42105;BME280;70664;51.472;5.712;2024-03-02T02:02:48;99792.63;;;17.38;63.13
42105;BME280;70664;51.472;5.712;2024-03-02T02:05:14;99797.06;;;17.36;63.26
42105;BME280;70664;51.472;5.712;2024-03-02T02:07:41;99787.56;;;17.35;63.35
42105;BME280;70664;51.472;5.712;2024-03-02T02:10:09;99797.19;;;17.33;63.50
42105;BME280;70664;51.472;5.712;2024-03-02T02:12:35;99801.53;;;17.32;63.01
42105;BME280;70664;51.472;5.712;2024-03-02T02:15:02;99794.69;;;17.30;63.10
42105;BME280;70664;51.472;5.712;2024-03-02T02:17:31;99791.19;;;17.31;63.31
42105;BME280;70664;51.472;5.712;2024-03-02T02:19:57;99792.09;;;17.30;63.38
42105;BME280;70664;51.472;5.712;2024-03-02T02:22:23;99787.00;;;17.28;63.09
42105;BME280;70664;51.472;5.712;2024-03-02T02:24:48;99788.69;;;17.29;63.00
42105;BME280;70664;51.472;5.712;2024-03-02T02:27:14;99790.50;;;17.27;63.09
42105;BME280;70664;51.472;5.712;2024-03-02T02:29:41;99794.06;;;17.25;63.30
42105;BME280;70664;51.472;5.712;2024-03-02T02:32:07;99792.38;;;17.24;63.21
42105;BME280;70664;51.472;5.712;2024-03-02T02:34:33;99789.78;;;17.24;63.32
42105;BME280;70664;51.472;5.712;2024-03-02T02:36:59;99781.22;;;17.21;63.50
42105;BME280;70664;51.472;5.712;2024-03-02T02:39:25;99784.75;;;17.19;63.20
42105;BME280;70664;51.472;5.712;2024-03-02T02:41:51;99786.53;;;17.18;63.02
42105;BME280;70664;51.472;5.712;2024-03-02T02:44:17;99773.59;;;17.17;63.53
42105;BME280;70664;51.472;5.712;2024-03-02T02:46:43;99779.56;;;17.19;63.25
42105;BME280;70664;51.472;5.712;2024-03-02T02:49:08;99771.00;;;17.17;63.25
42105;BME280;70664;51.472;5.712;2024-03-02T02:51:34;99759.81;;;17.15;63.48
42105;BME280;70664;51.472;5.712;2024-03-02T02:54:00;99764.25;;;17.13;63.30
42105;BME280;70664;51.472;5.712;2024-03-02T02:56:26;99762.56;;;17.12;63.23
42105;BME280;70664;51.472;5.712;2024-03-02T02:58:51;99776.38;;;17.12;63.53
42105;BME280;70664;51.472;5.712;2024-03-02T03:01:17;99786.00;;;17.10;63.67
42105;BME280;70664;51.472;5.712;2024-03-02T03:03:44;99780.00;;;17.08;63.49
42105;BME280;70664;51.472;5.712;2024-03-02T03:06:10;99787.78;;;17.08;63.21
42105;BME280;70664;51.472;5.712;2024-03-02T03:08:36;99779.19;;;17.07;63.53
42105;BME280;70664;51.472;5.712;2024-03-02T03:11:04;99788.78;;;17.05;63.37
42105;BME280;70664;51.472;5.712;2024-03-02T03:13:34;99796.63;;;17.04;63.45
42105;BME280;70664;51.472;5.712;2024-03-02T03:16:00;99798.38;;;17.03;63.33
42105;BME280;70664;51.472;5.712;2024-03-02T03:18:26;99806.19;;;17.03;63.44
42105;BME280;70664;51.472;5.712;2024-03-02T03:20:54;99807.13;;;17.01;63.54
42105;BME280;70664;51.472;5.712;2024-03-02T03:23:20;99796.75;;;17.01;63.43
42105;BME280;70664;51.472;5.712;2024-03-02T03:25:46;99802.88;;;17.00;63.61
42105;BME280;70664;51.472;5.712;2024-03-02T03:28:12;99809.78;;;16.99;63.41
42105;BME280;70664;51.472;5.712;2024-03-02T03:30:38;99815.91;;;16.98;63.76
42105;BME280;70664;51.472;5.712;2024-03-02T03:33:05;99807.31;;;16.96;63.58
42105;BME280;70664;51.472;5.712;2024-03-02T03:35:34;99800.38;;;16.97;63.36
42105;BME280;70664;51.472;5.712;2024-03-02T03:38:03;99809.09;;;16.96;63.23
42105;BME280;70664;51.472;5.712;2024-03-02T03:40:29;99802.13;;;16.96;63.65
42105;BME280;70664;51.472;5.712;2024-03-02T03:42:55;99815.97;;;16.95;63.52
42105;BME280;70664;51.472;5.712;2024-03-02T03:45:22;99842.94;;;16.92;63.67
42105;BME280;70664;51.472;5.712;2024-03-02T03:47:48;99837.78;;;16.91;63.65
42105;BME280;70664;51.472;5.712;2024-03-02T03:50:14;99829.94;;;16.92;63.32
42105;BME280;70664;51.472;5.712;2024-03-02T03:52:40;99811.81;;;16.91;63.26
42105;BME280;70664;51.472;5.712;2024-03-02T03:55:06;99806.72;;;16.88;63.79
42105;BME280;70664;51.472;5.712;2024-03-02T03:57:32;99814.59;;;16.86;63.53
42105;BME280;70664;51.472;5.712;2024-03-02T03:59:57;99821.59;;;16.84;63.74
42105;BME280;70664;51.472;5.712;2024-03-02T04:02:23;99823.28;;;16.85;63.42
42105;BME280;70664;51.472;5.712;2024-03-02T04:04:50;99821.59;;;16.84;63.52
42105;BME280;70664;51.472;5.712;2024-03-02T04:07:16;99818.19;;;16.84;63.54
42105;BME280;70664;51.472;5.712;2024-03-02T04:09:42;99832.06;;;16.83;63.47
42105;BME280;70664;51.472;5.712;2024-03-02T04:12:07;99833.88;;;16.81;63.86
42105;BME280;70664;51.472;5.712;2024-03-02T04:14:33;99834.69;;;16.81;63.48
42105;BME280;70664;51.472;5.712;2024-03-02T04:16:59;99837.41;;;16.78;63.61
42105;BME280;70664;51.472;5.712;2024-03-02T04:19:25;99841.78;;;16.77;63.99
42105;BME280;70664;51.472;5.712;2024-03-02T04:21:55;99840.13;;;16.75;63.76
42105;BME280;70664;51.472;5.712;2024-03-02T04:24:21;99826.31;;;16.74;63.87
42105;BME280;70664;51.472;5.712;2024-03-02T04:26:47;99833.22;;;16.74;63.84
42105;BME280;70664;51.472;5.712;2024-03-02T04:29:13;99823.81;;;16.71;64.08
42105;BME280;70664;51.472;5.712;2024-03-02T04:31:38;99833.31;;;16.72;63.71
42105;BME280;70664;51.472;5.712;2024-03-02T04:34:04;99835.06;;;16.72;63.53
42105;BME280;70664;51.472;5.712;2024-03-02T04:36:30;99823.91;;;16.70;64.01
42105;BME280;70664;51.472;5.712;2024-03-02T04:38:56;99818.72;;;16.70;63.62
42105;BME280;70664;51.472;5.712;2024-03-02T04:41:22;99815.31;;;16.68;63.93
42105;BME280;70664;51.472;5.712;2024-03-02T04:43:48;99817.84;;;16.69;64.00
42105;BME280;70664;51.472;5.712;2024-03-02T04:46:13;99825.63;;;16.69;63.68
42105;BME280;70664;51.472;5.712;2024-03-02T04:48:39;99819.66;;;16.67;63.80
42105;BME280;70664;51.472;5.712;2024-03-02T04:51:05;99816.22;;;16.67;63.94
42105;BME280;70664;51.472;5.712;2024-03-02T04:53:31;99833.53;;;16.66;64.02
42105;BME280;70664;51.472;5.712;2024-03-02T04:55:57;99826.66;;;16.65;63.77
42105;BME280;70664;51.472;5.712;2024-03-02T04:58:41;99830.16;;;16.64;63.73
42105;BME280;70664;51.472;5.712;2024-03-02T05:01:07;99840.59;;;16.62;63.66
42105;BME280;70664;51.472;5.712;2024-03-02T05:03:33;99832.81;;;16.62;63.73
42105;BME280;70664;51.472;5.712;2024-03-02T05:06:00;99844.09;;;16.61;64.01
42105;BME280;70664;51.472;5.712;2024-03-02T05:08:26;99839.81;;;16.60;64.08
42105;BME280;70664;51.472;5.712;2024-03-02T05:10:52;99837.25;;;16.59;64.00
42105;BME280;70664;51.472;5.712;2024-03-02T05:13:17;99830.34;;;16.59;63.72
42105;BME280;70664;51.472;5.712;2024-03-02T05:15:44;99836.44;;;16.58;63.97
42105;BME280;70664;51.472;5.712;2024-03-02T05:18:09;99836.50;;;16.57;63.71
42105;BME280;70664;51.472;5.712;2024-03-02T05:20:35;99837.34;;;16.57;63.94
42105;BME280;70664;51.472;5.712;2024-03-02T05:23:01;99839.09;;;16.57;63.96
42105;BME280;70664;51.472;5.712;2024-03-02T05:25:27;99844.28;;;16.57;64.14
42105;BME280;70664;51.472;5.712;2024-03-02T05:27:52;99843.50;;;16.55;64.12
42105;BME280;70664;51.472;5.712;2024-03-02T05:30:18;99853.09;;;16.53;63.81
42105;BME280;70664;51.472;5.712;2024-03-02T05:32:44;99856.59;;;16.52;64.12
42105;BME280;70664;51.472;5.712;2024-03-02T05:35:10;99859.19;;;16.52;64.06
42105;BME280;70664;51.472;5.712;2024-03-02T05:37:38;99864.38;;;16.52;64.03
42105;BME280;70664;51.472;5.712;2024-03-02T05:40:05;99865.31;;;16.49;63.93
42105;BME280;70664;51.472;5.712;2024-03-02T05:42:31;99872.25;;;16.48;63.89
42105;BME280;70664;51.472;5.712;2024-03-02T05:44:57;99871.41;;;16.48;63.85
42105;BME280;70664;51.472;5.712;2024-03-02T05:47:23;99863.69;;;16.46;64.21
42105;BME280;70664;51.472;5.712;2024-03-02T05:49:48;99868.00;;;16.46;64.16
42105;BME280;70664;51.472;5.712;2024-03-02T05:52:14;99872.44;;;16.44;63.97
42105;BME280;70664;51.472;5.712;2024-03-02T05:54:40;99875.88;;;16.44;64.09
42105;BME280;70664;51.472;5.712;2024-03-02T05:57:06;99884.63;;;16.42;63.90
42105;BME280;70664;51.472;5.712;2024-03-02T05:59:50;99885.41;;;16.44;64.21
42105;BME280;70664;51.472;5.712;2024-03-02T06:02:16;99883.72;;;16.43;63.96
42105;BME280;70664;51.472;5.712;2024-03-02T06:04:42;99882.03;;;16.42;64.28
42105;BME280;70664;51.472;5.712;2024-03-02T06:07:08;99886.41;;;16.40;63.82
42105;BME280;70664;51.472;5.712;2024-03-02T06:09:33;99885.53;;;16.41;64.08
42105;BME280;70664;51.472;5.712;2024-03-02T06:11:59;99885.53;;;16.41;63.96
42105;BME280;70664;51.472;5.712;2024-03-02T06:14:25;99886.41;;;16.40;63.85
42105;BME280;70664;51.472;5.712;2024-03-02T06:16:51;99887.34;;;16.37;64.12
42105;BME280;70664;51.472;5.712;2024-03-02T06:19:17;99891.72;;;16.37;63.91
42105;BME280;70664;51.472;5.712;2024-03-02T06:21:43;99890.03;;;16.36;64.05
42105;BME280;70664;51.472;5.712;2024-03-02T06:24:10;99890.03;;;16.36;64.01
42105;BME280;70664;51.472;5.712;2024-03-02T06:26:35;99894.41;;;16.33;63.86
42105;BME280;70664;51.472;5.712;2024-03-02T06:29:01;99896.94;;;16.35;63.89
42105;BME280;70664;51.472;5.712;2024-03-02T06:31:28;99895.25;;;16.34;64.15
42105;BME280;70664;51.472;5.712;2024-03-02T06:33:53;99890.13;;;16.32;63.92
42105;BME280;70664;51.472;5.712;2024-03-02T06:36:19;99894.44;;;16.32;64.02
42105;BME280;70664;51.472;5.712;2024-03-02T06:38:45;99897.13;;;16.30;64.19
42105;BME280;70664;51.472;5.712;2024-03-02T06:41:11;99901.47;;;16.30;63.88
42105;BME280;70664;51.472;5.712;2024-03-02T06:43:36;99906.69;;;16.28;64.09
42105;BME280;70664;51.472;5.712;2024-03-02T06:46:03;99905.78;;;16.29;63.97
42105;BME280;70664;51.472;5.712;2024-03-02T06:48:30;99902.38;;;16.29;64.10
42105;BME280;70664;51.472;5.712;2024-03-02T06:50:56;99915.34;;;16.29;63.95
42105;BME280;70664;51.472;5.712;2024-03-02T06:53:22;99904.09;;;16.28;63.96
42105;BME280;70664;51.472;5.712;2024-03-02T06:55:48;99911.88;;;16.28;63.61
42105;BME280;70664;51.472;5.712;2024-03-02T06:58:14;99912.78;;;16.27;64.19
42105;BME280;70664;51.472;5.712;2024-03-02T07:00:42;99913.75;;;16.25;64.21
42105;BME280;70664;51.472;5.712;2024-03-02T07:03:08;99918.03;;;16.26;63.97
42105;BME280;70664;51.472;5.712;2024-03-02T07:05:34;99919.78;;;16.25;64.09
42105;BME280;70664;51.472;5.712;2024-03-02T07:07:59;99935.41;;;16.24;64.01
42105;BME280;70664;51.472;5.712;2024-03-02T07:10:27;99935.41;;;16.24;63.94
42105;BME280;70664;51.472;5.712;2024-03-02T07:12:52;99941.41;;;16.24;63.98
42105;BME280;70664;51.472;5.712;2024-03-02T07:15:19;99931.13;;;16.23;63.93
42105;BME280;70664;51.472;5.712;2024-03-02T07:17:54;99938.00;;;16.24;64.10
42105;BME280;70664;51.472;5.712;2024-03-02T07:20:20;99941.41;;;16.24;63.80
42105;BME280;70664;51.472;5.712;2024-03-02T07:22:46;99942.28;;;16.25;64.03
42105;BME280;70664;51.472;5.712;2024-03-02T07:25:13;99943.91;;;16.27;63.74
42105;BME280;70664;51.472;5.712;2024-03-02T07:27:39;99949.97;;;16.28;63.83
42105;BME280;70664;51.472;5.712;2024-03-02T07:30:06;99950.78;;;16.28;63.77
42105;BME280;70664;51.472;5.712;2024-03-02T07:32:32;99941.28;;;16.29;63.90
42105;BME280;70664;51.472;5.712;2024-03-02T07:34:58;99942.97;;;16.30;63.51
42105;BME280;70664;51.472;5.712;2024-03-02T07:37:24;99947.22;;;16.31;63.42
42105;BME280;70664;51.472;5.712;2024-03-02T07:39:50;99945.50;;;16.31;63.61
42105;BME280;70664;51.472;5.712;2024-03-02T07:42:16;99953.22;;;16.33;63.37
42105;BME280;70664;51.472;5.712;2024-03-02T07:44:44;99952.41;;;16.31;63.30
42105;BME280;70664;51.472;5.712;2024-03-02T07:47:11;99948.09;;;16.31;63.68
42105;BME280;70664;51.472;5.712;2024-03-02T07:49:37;99951.53;;;16.32;63.46
42105;BME280;70664;51.472;5.712;2024-03-02T07:52:03;99953.22;;;16.33;63.35
42105;BME280;70664;51.472;5.712;2024-03-02T07:54:29;99952.38;;;16.32;63.49
42105;BME280;70664;51.472;5.712;2024-03-02T07:56:55;99947.22;;;16.31;63.55
42105;BME280;70664;51.472;5.712;2024-03-02T07:59:21;99943.81;;;16.30;63.62
42105;BME280;70664;51.472;5.712;2024-03-02T08:01:49;99955.94;;;16.30;63.51
42105;BME280;70664;51.472;5.712;2024-03-02T08:04:14;99955.06;;;16.29;63.41
42105;BME280;70664;51.472;5.712;2024-03-02T08:06:40;99954.25;;;16.29;63.51
42105;BME280;70664;51.472;5.712;2024-03-02T08:09:06;99960.34;;;16.28;63.68
42105;BME280;70664;51.472;5.712;2024-03-02T08:11:36;99959.53;;;16.26;63.19
42105;BME280;70664;51.472;5.712;2024-03-02T08:14:03;99957.88;;;16.23;63.58
42105;BME280;70664;51.472;5.712;2024-03-02T08:16:29;99965.66;;;16.23;63.46
42105;BME280;70664;51.472;5.712;2024-03-02T08:18:55;99969.13;;;16.24;63.57
42105;BME280;70664;51.472;5.712;2024-03-02T08:21:24;99960.44;;;16.25;63.91
42105;BME280;70664;51.472;5.712;2024-03-02T08:23:50;99968.25;;;16.23;63.99
42105;BME280;70664;51.472;5.712;2024-03-02T08:26:16;99969.94;;;16.24;63.87
42105;BME280;70664;51.472;5.712;2024-03-02T08:28:42;99965.56;;;16.26;64.30
42105;BME280;70664;51.472;5.712;2024-03-02T08:31:08;99971.59;;;16.27;64.14
42105;BME280;70664;51.472;5.712;2024-03-02T08:33:34;99964.72;;;16.26;64.00
42105;BME280;70664;51.472;5.712;2024-03-02T08:36:01;99963.84;;;16.25;64.41
42105;BME280;70664;51.472;5.712;2024-03-02T08:38:26;99965.63;;;16.25;64.33
42105;BME280;70664;51.472;5.712;2024-03-02T08:40:53;99956.94;;;16.26;64.61
42105;BME280;70664;51.472;5.712;2024-03-02T08:43:19;99962.13;;;16.26;64.85
42105;BME280;70664;51.472;5.712;2024-03-02T08:45:45;99957.84;;;16.25;64.31
42105;BME280;70664;51.472;5.712;2024-03-02T08:48:12;99963.84;;;16.25;64.07
42105;BME280;70664;51.472;5.712;2024-03-02T08:50:38;99975.09;;;16.26;64.64
42105;BME280;70664;51.472;5.712;2024-03-02T08:53:04;99970.84;;;16.23;64.90
42105;BME280;70664;51.472;5.712;2024-03-02T08:55:30;99970.00;;;16.23;64.93
42105;BME280;70664;51.472;5.712;2024-03-02T08:57:56;99970.00;;;16.23;64.94
42105;BME280;70664;51.472;5.712;2024-03-02T09:00:23;99968.31;;;16.22;64.96
42105;BME280;70664;51.472;5.712;2024-03-02T09:02:49;99975.19;;;16.23;65.22
42105;BME280;70664;51.472;5.712;2024-03-02T09:05:15;99967.41;;;16.23;65.19
42105;BME280;70664;51.472;5.712;2024-03-02T09:07:41;99971.75;;;16.22;65.09
42105;BME280;70664;51.472;5.712;2024-03-02T09:10:08;99978.69;;;16.22;65.25
42105;BME280;70664;51.472;5.712;2024-03-02T09:12:34;99972.63;;;16.21;65.42
42105;BME280;70664;51.472;5.712;2024-03-02T09:15:02;99972.63;;;16.21;65.13
42105;BME280;70664;51.472;5.712;2024-03-02T09:17:31;99976.09;;;16.22;65.44
42105;BME280;70664;51.472;5.712;2024-03-02T09:19:57;99973.50;;;16.22;65.25
42105;BME280;70664;51.472;5.712;2024-03-02T09:22:23;99967.47;;;16.21;65.28
42105;BME280;70664;51.472;5.712;2024-03-02T09:24:49;99966.56;;;16.22;65.51
42105;BME280;70664;51.472;5.712;2024-03-02T09:27:15;99976.03;;;16.23;65.34
42105;BME280;70664;51.472;5.712;2024-03-02T09:29:40;99964.84;;;16.21;64.92
42105;BME280;70664;51.472;5.712;2024-03-02T09:32:08;99976.09;;;16.22;65.08
42105;BME280;70664;51.472;5.712;2024-03-02T09:34:34;99963.94;;;16.24;65.18
42105;BME280;70664;51.472;5.712;2024-03-02T09:36:59;99959.63;;;16.23;65.32
42105;BME280;70664;51.472;5.712;2024-03-02T09:39:25;99958.78;;;16.22;64.95
42105;BME280;70664;51.472;5.712;2024-03-02T09:41:52;99970.84;;;16.23;65.30
42105;BME280;70664;51.472;5.712;2024-03-02T09:44:18;99967.41;;;16.23;64.98
42105;BME280;70664;51.472;5.712;2024-03-02T09:46:49;99966.56;;;16.22;65.26
42105;BME280;70664;51.472;5.712;2024-03-02T09:49:15;99962.16;;;16.24;64.96
42105;BME280;70664;51.472;5.712;2024-03-02T09:51:41;99958.75;;;16.24;65.35
42105;BME280;70664;51.472;5.712;2024-03-02T09:54:12;99965.66;;;16.23;65.32
42105;BME280;70664;51.472;5.712;2024-03-02T09:56:38;99967.34;;;16.24;64.80
42105;BME280;70664;51.472;5.712;2024-03-02T09:59:04;99962.34;;;16.20;65.11
42105;BME280;70664;51.472;5.712;2024-03-02T10:01:31;99960.47;;;16.23;65.22
42105;BME280;70664;51.472;5.712;2024-03-02T10:03:59;99959.56;;;16.24;64.70
42105;BME280;70664;51.472;5.712;2024-03-02T10:06:27;99963.81;;;16.27;64.90
42105;BME280;70664;51.472;5.712;2024-03-02T10:08:55;99958.69;;;16.25;64.86
42105;BME280;70664;51.472;5.712;2024-03-02T10:11:39;99968.16;;;16.26;64.73
42105;BME280;70664;51.472;5.712;2024-03-02T10:14:09;99951.78;;;16.24;64.72
42105;BME280;70664;51.472;5.712;2024-03-02T10:16:41;99955.25;;;16.25;64.96
42105;BME280;70664;51.472;5.712;2024-03-02T10:19:21;99955.25;;;16.25;64.88
42105;BME280;70664;51.472;5.712;2024-03-02T10:21:54;99951.78;;;16.24;65.05
42105;BME280;70664;51.472;5.712;2024-03-02T10:24:22;99951.84;;;16.23;64.82
42105;BME280;70664;51.472;5.712;2024-03-02T10:26:48;99949.25;;;16.23;64.86
42105;BME280;70664;51.472;5.712;2024-03-02T10:29:15;99955.28;;;16.23;65.05
42105;BME280;70664;51.472;5.712;2024-03-02T10:31:45;99940.69;;;16.21;64.88
42105;BME280;70664;51.472;5.712;2024-03-02T10:34:12;99947.56;;;16.22;65.08
42105;BME280;70664;51.472;5.712;2024-03-02T10:36:42;99944.13;;;16.21;65.25
42105;BME280;70664;51.472;5.712;2024-03-02T10:39:08;99934.59;;;16.22;64.97
42105;BME280;70664;51.472;5.712;2024-03-02T10:41:36;99932.13;;;16.18;64.55
42105;BME280;70664;51.472;5.712;2024-03-02T10:44:09;99938.31;;;16.14;65.13
42105;BME280;70664;51.472;5.712;2024-03-02T10:46:38;99935.72;;;16.14;64.89
42105;BME280;70664;51.472;5.712;2024-03-02T10:49:05;99938.50;;;16.08;57.67
42105;BME280;70664;51.472;5.712;2024-03-02T10:51:34;99934.22;;;16.07;63.35
42105;BME280;70664;51.472;5.712;2024-03-02T10:54:03;99933.31;;;16.08;63.35
42105;BME280;70664;51.472;5.712;2024-03-02T10:56:41;99933.22;;;16.11;62.97
42105;BME280;70664;51.472;5.712;2024-03-02T11:01:58;99919.31;;;16.14;63.56
42105;BME280;70664;51.472;5.712;2024-03-02T11:04:29;99923.53;;;16.16;63.49
42105;BME280;70664;51.472;5.712;2024-03-02T11:07:15;99927.94;;;16.14;63.53
42105;BME280;70664;51.472;5.712;2024-03-02T11:09:54;99926.19;;;16.15;63.74
42105;BME280;70664;51.472;5.712;2024-03-02T11:12:32;99929.63;;;16.15;63.63
42105;BME280;70664;51.472;5.712;2024-03-02T11:15:00;99932.28;;;16.14;64.17
42105;BME280;70664;51.472;5.712;2024-03-02T11:17:29;99921.13;;;16.12;64.20
42105;BME280;70664;51.472;5.712;2024-03-02T11:19:55;99924.50;;;16.14;64.20
42105;BME280;70664;51.472;5.712;2024-03-02T11:22:22;99912.38;;;16.14;64.16
42105;BME280;70664;51.472;5.712;2024-03-02T11:24:50;99917.56;;;16.14;64.13
42105;BME280;70664;51.472;5.712;2024-03-02T11:33:03;99917.53;;;16.16;64.60
42105;BME280;70664;51.472;5.712;2024-03-02T11:35:45;99910.50;;;16.18;64.15
42105;BME280;70664;51.472;5.712;2024-03-02T11:38:12;99907.88;;;16.20;64.34
42105;BME280;70664;51.472;5.712;2024-03-02T11:40:41;99904.41;;;16.19;64.31
42105;BME280;70664;51.472;5.712;2024-03-02T11:43:07;99911.28;;;16.20;64.24
42105;BME280;70664;51.472;5.712;2024-03-02T11:45:36;99899.13;;;16.22;64.38
42105;BME280;70664;51.472;5.712;2024-03-02T11:48:06;99908.59;;;16.23;64.30
42105;BME280;70664;51.472;5.712;2024-03-02T11:50:36;99895.63;;;16.23;64.68
42105;BME280;70664;51.472;5.712;2024-03-02T11:53:09;99893.84;;;16.25;64.34
42105;BME280;70664;51.472;5.712;2024-03-02T11:55:40;99891.25;;;16.25;64.45
42105;BME280;70664;51.472;5.712;2024-03-02T11:58:07;99892.94;;;16.26;64.46
42105;BME280;70664;51.472;5.712;2024-03-02T12:00:33;99884.25;;;16.27;64.68
42105;BME280;70664;51.472;5.712;2024-03-02T12:03:13;99891.19;;;16.27;64.21
42105;BME280;70664;51.472;5.712;2024-03-02T12:05:39;99892.91;;;16.28;64.41
42105;BME280;70664;51.472;5.712;2024-03-02T12:08:07;99888.53;;;16.28;64.63
42105;BME280;70664;51.472;5.712;2024-03-02T12:10:34;99878.22;;;16.27;64.84
42105;BME280;70664;51.472;5.712;2024-03-02T12:13:04;99869.47;;;16.29;64.33
42105;BME280;70664;51.472;5.712;2024-03-02T12:15:32;99867.75;;;16.30;64.62
42105;BME280;70664;51.472;5.712;2024-03-02T12:18:01;99864.22;;;16.31;64.13
42105;BME280;70664;51.472;5.712;2024-03-02T12:20:29;99870.28;;;16.31;64.60
42105;BME280;70664;51.472;5.712;2024-03-02T12:22:58;99863.41;;;16.30;64.57
42105;BME280;70664;51.472;5.712;2024-03-02T12:25:25;99855.53;;;16.32;64.46
42105;BME280;70664;51.472;5.712;2024-03-02T12:27:55;99846.84;;;16.33;64.65
42105;BME280;70664;51.472;5.712;2024-03-02T12:30:22;99846.03;;;16.32;64.75
42105;BME280;70664;51.472;5.712;2024-03-02T12:32:48;99835.66;;;16.32;64.36
42105;BME280;70664;51.472;5.712;2024-03-02T12:35:14;99837.34;;;16.33;64.42
42105;BME280;70664;51.472;5.712;2024-03-02T12:37:49;99833.00;;;16.34;64.42
42105;BME280;70664;51.472;5.712;2024-03-02T12:40:17;99831.25;;;16.35;64.55
42105;BME280;70664;51.472;5.712;2024-03-02T12:42:48;99820.88;;;16.35;64.55
42105;BME280;70664;51.472;5.712;2024-03-02T12:45:15;99830.34;;;16.36;64.56
42105;BME280;70664;51.472;5.712;2024-03-02T12:47:42;99816.53;;;16.35;64.32
42105;BME280;70664;51.472;5.712;2024-03-02T12:50:10;99811.28;;;16.37;64.09
42105;BME280;70664;51.472;5.712;2024-03-02T12:52:36;99825.16;;;16.36;64.45
42105;BME280;70664;51.472;5.712;2024-03-02T12:55:05;99813.94;;;16.35;64.42
42105;BME280;70664;51.472;5.712;2024-03-02T12:57:34;99811.34;;;16.35;64.15
42105;BME280;70664;51.472;5.712;2024-03-02T13:00:03;99810.50;;;16.35;64.18
42105;BME280;70664;51.472;5.712;2024-03-02T13:02:35;99805.31;;;16.35;64.13
42105;BME280;70664;51.472;5.712;2024-03-02T13:05:02;99807.06;;;16.34;64.36
42105;BME280;70664;51.472;5.712;2024-03-02T13:07:29;99802.66;;;16.36;64.13
42105;BME280;70664;51.472;5.712;2024-03-02T13:09:56;99808.75;;;16.35;64.01
42105;BME280;70664;51.472;5.712;2024-03-02T13:12:24;99807.84;;;16.36;64.42